Airfield :
LOGIN :

Register | Disclaimer

   EN    FR    IT 

 










Legend :    VFR   Marginal VFR   IFR   Intensive IFR   Very Intensive IFR
Visi :
Ceiling :
>= 8 km
>= 3000ft
5 to 8 km
1000 to 3000 ft
1500m to 5 km
500 to 1000 ft
800 to 1500m
200 to 500 ft
< 800m
< 200 ft
Symbols :   Thunderstorms  Fog  Heavy snow  Heavy precipitations  Wind > 20 kt
SIGMETs :     Misc.  Thunderstorms  Icing  Turbulence  Mountain Waves  Volcanic Ashes






- Airport Elevation : 1306 ft
- IATA code : ACH


LSZR - Alten Rhein

CURRENT METAR :
  • 231350Z 01008KT 9999 SCT022 BKN026 05/00 Q1014 RMK K

EXPIRED METARs :
  • 231320Z 01008KT 9999 SCT022 BKN026 05/00 Q1014 RMK K
  • 231250Z 01009KT 330V040 9999 SCT019 BKN022 05/01 Q1014 RMK I
  • 231220Z 01009KT 330V040 9999 SCT019 BKN022 05/01 Q1014 RMK I
  • 231150Z 35008KT 310V030 9999 FEW019 SCT023 BKN029 05/01 Q1014 RMK H
  • 231120Z 35008KT 310V030 9999 FEW019 SCT023 BKN029 05/01 Q1014 RMK H
  • 231050Z 01007KT 9999 FEW021 BKN044 05/00 Q1014 RMK G
  • 231020Z 01007KT 9999 FEW021 BKN044 05/M00 Q1014 RMK G
  • 230950Z 03008KT 350V070 9999 SCT019 SCT036 BKN049 05/00 Q1014 RMK F
  • 230920Z 03008KT 350V070 9999 SCT019 SCT036 BKN049 05/00 Q1014 RMK F

TAF TAF LSZR
Valid from the 23 at 12:00 until the 23 at 21:00 UTC


231125Z 2312/2321 35008KT 9999 BKN020
PROB30 2318/2321 4000 -RASN BKN012
ATIS : +41 71 858 51 66



MET'MAP, your aeronautical weather chart ! - Copyright ORBIFLY December 2007 - Disclaimer

ORBIFLY MET'MAP TEAM :

Programming & Development : Alexandra Zaïnal
Original concept : Baudouin d'Aumeries
Technical & hardware support : Manuel Goepfert
Assistance : Marc-Olivier Méhu




SOURCES & CREDITS :

   NOAA